Decoded Metar for LEPA (PALMA DE MALLORCA in SPAIN) (IATA:PMI) | Meteo·Mobile Aviation Weather
aviador You're here:

LEPA Decoded Metar

PALMA DE MALLORCA in SPAIN
Report Time2019-10-18 13:00:00
UTC Time2019-10-18 13:15:48
Flight Rules vfr VFR
Wind220° at 09 kt
W.Decomp.*RWY 24: 8.4 kt HW 3.2 kt LCW
Visibility9999 m
Phenomena:N/A
Clouds:Few 025 Hf
Expected CloudBase > 2,800 ft AGL from Temp-Dew spread
CeilingNone
Temp25°C (ISA +10)
Dew Point18°C (65% RH)
AAT24.5°C
QNH1015 hPa
Density Alt1,398 ft
Elevation26 ft
Report Wrong Elevation
Raw Report
LEPA 181300Z 22009KT 190V250 9999 FEW025 25/18 Q1015 NOSIG=

Extra information for LEPA:More info

Metar Taf Metar & Taf Last 4 Metars F.Rules Stats Wind Profile Meteogram Temp Stats Airport Information Weather charts Add Link Nearby VenuesMetar ALERT Operation Metar Decoded Social comments

Webcam La Seu Palma